Time;durP1;ratioP1;P1;durP2;ratioP2;P2;SDS_P1;SDS_P2;PMS_P1;PMS_P2;Temp;Humidity;BMP_temperature;BMP_pressure;BME280_temperature;BME280_humidity;BME280_pressure;Samples;Min_cycle;Max_cycle;Signal;HPM_P1;HPM_P2
2022/05/24 00:01:18;;;;;;;0.20;0.10;;;;;;;;;;6155620;23;20021;-88
2022/05/24 00:49:52;;;;;;;0.20;0.07;;;;;;;;;;6177616;23;20116;-87
2022/05/24 01:00:06;;;;;;;0.35;0.10;;;;;;;;;;6178559;23;20012;-89
2022/05/24 01:02:43;;;;;;;0.20;0.10;;;;;;;;;;6128574;23;20080;-89
2022/05/24 01:05:18;;;;;;;0.20;0.10;;;;;;;;;;6127264;23;20017;-89
2022/05/24 01:07:46;;;;;;;0.20;0.00;;;;;;;;;;6126045;23;20607;-87
2022/05/24 01:10:16;;;;;;;0.25;0.13;;;;;;;;;;6102626;23;20017;-89
2022/05/24 01:12:51;;;;;;;0.20;0.10;;;;;;;;;;6127187;23;20438;-89
2022/05/24 01:15:21;;;;;;;0.20;0.10;;;;;;;;;;6127798;23;20013;-89
2022/05/24 01:17:48;;;;;;;0.20;0.10;;;;;;;;;;6128658;23;20017;-89
2022/05/24 01:20:14;;;;;;;0.20;0.10;;;;;;;;;;6095015;23;20051;-88
2022/05/24 01:22:59;;;;;;;0.20;0.00;;;;;;;;;;6126763;23;20017;-88
2022/05/24 01:25:36;;;;;;;1.48;0.20;;;;;;;;;;6126869;23;20495;-88
2022/05/24 01:28:07;;;;;;;0.20;0.10;;;;;;;;;;6126865;23;20461;-88
2022/05/24 01:30:36;;;;;;;0.20;0.10;;;;;;;;;;6123740;23;20281;-88
2022/05/24 01:38:32;;;;;;;0.20;0.10;;;;;;;;;;6129365;23;20021;-89
2022/05/24 01:40:59;;;;;;;0.20;0.10;;;;;;;;;;6126643;23;20021;-89
2022/05/24 01:43:26;;;;;;;0.20;0.00;;;;;;;;;;6125680;23;20021;-88
2022/05/24 01:46:01;;;;;;;3.60;0.20;;;;;;;;;;6150598;23;20025;-89
2022/05/24 01:48:30;;;;;;;15.65;0.50;;;;;;;;;;6127482;23;20027;-90
2022/05/24 01:50:58;;;;;;;0.20;0.05;;;;;;;;;;6148097;23;20068;-88
2022/05/24 01:53:27;;;;;;;0.20;0.10;;;;;;;;;;6151992;23;20017;-88
2022/05/24 01:55:55;;;;;;;0.20;0.10;;;;;;;;;;6152183;23;20458;-89
2022/05/24 01:58:22;;;;;;;0.30;0.17;;;;;;;;;;6152975;23;20021;-89
2022/05/24 02:00:55;;;;;;;0.20;0.20;;;;;;;;;;6149373;23;20052;-90
2022/05/24 02:03:21;;;;;;;0.40;0.15;;;;;;;;;;6148542;23;20017;-91
2022/05/24 02:05:48;;;;;;;0.20;0.20;;;;;;;;;;6147451;23;20009;-88
2022/05/24 02:08:14;;;;;;;0.20;0.10;;;;;;;;;;6126163;23;20052;-89
2022/05/24 02:10:47;;;;;;;0.30;0.30;;;;;;;;;;6152046;23;20529;-90
2022/05/24 02:13:23;;;;;;;0.20;0.10;;;;;;;;;;6155158;23;20803;-91
2022/05/24 02:15:53;;;;;;;0.20;0.10;;;;;;;;;;6181372;23;20044;-88
2022/05/24 02:18:21;;;;;;;0.20;0.03;;;;;;;;;;6156148;23;20024;-88
2022/05/24 02:20:48;;;;;;;0.20;0.10;;;;;;;;;;6152984;23;20048;-88
2022/05/24 02:23:16;;;;;;;0.20;0.00;;;;;;;;;;6152177;23;20537;-87
2022/05/24 02:25:45;;;;;;;0.30;0.15;;;;;;;;;;6153698;23;20042;-89
2022/05/24 02:28:12;;;;;;;0.20;0.10;;;;;;;;;;6154622;23;20039;-88
2022/05/24 02:30:46;;;;;;;0.20;0.10;;;;;;;;;;6153718;23;20017;-90
2022/05/24 02:33:13;;;;;;;0.30;0.30;;;;;;;;;;6128615;23;20020;-88
2022/05/24 02:35:40;;;;;;;0.38;0.20;;;;;;;;;;6152233;23;20009;-88
2022/05/24 02:38:06;;;;;;;0.35;0.30;;;;;;;;;;6155079;23;20017;-89
2022/05/24 02:43:23;;;;;;;0.20;0.10;;;;;;;;;;6133945;23;20025;-87
2022/05/24 02:45:52;;;;;;;0.85;0.75;;;;;;;;;;6129110;23;20028;-90
2022/05/24 02:48:28;;;;;;;1.42;0.50;;;;;;;;;;6129065;23;20009;-88
2022/05/24 02:51:27;;;;;;;0.30;0.13;;;;;;;;;;6104658;23;20028;-90
2022/05/24 02:54:00;;;;;;;0.20;0.10;;;;;;;;;;6110784;23;20116;-88
2022/05/24 02:56:30;;;;;;;0.50;0.38;;;;;;;;;;6129367;23;20052;-89
2022/05/24 02:58:56;;;;;;;1.48;0.38;;;;;;;;;;6128590;23;20115;-89
2022/05/24 03:01:29;;;;;;;0.82;0.50;;;;;;;;;;6125680;23;20107;-87
2022/05/24 03:04:00;;;;;;;9.95;0.57;;;;;;;;;;6127584;23;20016;-88
2022/05/24 03:09:35;;;;;;;0.60;0.43;;;;;;;;;;6154832;23;20028;-89
2022/05/24 03:15:13;;;;;;;0.20;0.10;;;;;;;;;;6151551;23;20092;-90
2022/05/24 03:17:43;;;;;;;1.17;0.22;;;;;;;;;;6129409;23;20017;-87
2022/05/24 03:23:16;;;;;;;0.60;0.40;;;;;;;;;;6031851;23;20030;-86
2022/05/24 03:26:00;;;;;;;0.63;0.40;;;;;;;;;;6011946;23;20066;-88
2022/05/24 03:28:47;;;;;;;0.20;0.10;;;;;;;;;;6111901;23;20458;-88
2022/05/24 03:31:39;;;;;;;0.52;0.50;;;;;;;;;;6095948;23;20068;-87
2022/05/24 03:34:24;;;;;;;0.90;0.57;;;;;;;;;;6121200;23;20017;-87
2022/05/24 03:37:36;;;;;;;1.75;0.40;;;;;;;;;;6117457;23;20478;-88
2022/05/24 03:40:34;;;;;;;;;;;;;;;;;;6021494;23;20025;-88
2022/05/24 03:43:11;;;;;;;2.15;0.28;;;13.20;99.90;;;;;;6146925;23;19991;-88
2022/05/24 03:45:43;;;;;;;0.45;0.25;;;13.30;99.90;;;;;;6120477;23;20013;-89
2022/05/24 03:48:09;;;;;;;0.68;0.50;;;13.30;99.90;;;;;;6116188;23;20013;-88
2022/05/24 03:50:35;;;;;;;0.93;0.38;;;13.30;99.90;;;;;;6117418;23;20021;-87
2022/05/24 03:53:01;;;;;;;0.30;0.22;;;13.30;99.90;;;;;;6120096;23;20581;-87
2022/05/24 03:55:30;;;;;;;0.20;0.20;;;13.30;99.90;;;;;;6072752;23;20013;-89
2022/05/24 03:58:02;;;;;;;1.73;0.50;;;13.40;99.90;;;;;;6094415;23;20707;-88
2022/05/24 04:00:42;;;;;;;1.58;0.82;;;13.40;99.90;;;;;;6093476;23;20048;-88
2022/05/24 04:03:08;;;;;;;2.50;0.47;;;13.40;99.90;;;;;;6115933;23;20024;-88
2022/05/24 04:05:38;;;;;;;1.05;0.80;;;13.40;99.90;;;;;;6113969;23;20040;-87
2022/05/24 04:08:06;;;;;;;0.70;0.35;;;13.50;99.90;;;;;;6117763;23;20025;-87
2022/05/24 04:12:59;;;;;;;4.40;0.55;;;13.50;99.90;;;;;;6172588;23;20553;-87
2022/05/24 04:15:29;;;;;;;1.42;0.45;;;13.50;99.90;;;;;;6123904;23;20020;-88
2022/05/24 04:17:58;;;;;;;1.55;0.57;;;13.60;99.90;;;;;;6123216;23;20118;-86
2022/05/24 04:20:46;;;;;;;0.53;0.40;;;13.60;99.90;;;;;;6099068;23;20096;-87
2022/05/24 04:23:22;;;;;;;1.65;0.40;;;13.60;99.90;;;;;;6099499;23;20022;-87
2022/05/24 04:25:57;;;;;;;0.47;0.47;;;13.60;99.90;;;;;;6098005;23;20490;-86
2022/05/24 04:28:23;;;;;;;0.57;0.35;;;13.60;99.90;;;;;;6096014;23;20040;-87
2022/05/24 04:30:55;;;;;;;1.08;0.80;;;13.70;99.90;;;;;;6092635;23;20636;-86
2022/05/24 04:33:33;;;;;;;0.32;0.17;;;13.60;99.90;;;;;;6091882;23;20509;-87
2022/05/24 04:36:04;;;;;;;1.08;0.57;;;13.60;99.90;;;;;;6091865;23;20387;-86
2022/05/24 04:38:33;;;;;;;2.45;0.82;;;13.70;99.90;;;;;;6069199;23;20025;-87
2022/05/24 04:43:46;;;;;;;0.50;0.40;;;;;;;;;;6092145;23;20115;-87
2022/05/24 04:46:15;;;;;;;0.22;0.22;;;;;;;;;;6066045;23;20583;-85
2022/05/24 04:48:52;;;;;;;0.80;0.40;;;;;;;;;;6094046;23;20098;-86
2022/05/24 04:51:18;;;;;;;0.50;0.28;;;;;;;;;;6064219;23;20092;-87
2022/05/24 04:53:47;;;;;;;1.23;0.40;;;13.70;99.90;;;;;;6068700;23;20525;-86
2022/05/24 04:56:16;;;;;;;1.95;0.70;;;;;;;;;;6091009;23;20063;-87
2022/05/24 04:58:42;;;;;;;1.15;0.60;;;;;;;;;;6090928;23;20020;-86
2022/05/24 05:01:08;;;;;;;1.98;0.68;;;;;;;;;;6091199;23;20013;-86
2022/05/24 05:03:35;;;;;;;2.25;0.60;;;;;;;;;;6065586;23;20518;-86
2022/05/24 05:06:06;;;;;;;1.27;0.70;;;;;;;;;;6066630;23;20017;-87
2022/05/24 05:08:32;;;;;;;2.38;0.95;;;;;;;;;;6087909;23;20017;-88
2022/05/24 05:10:59;;;;;;;1.00;0.70;;;;;;;;;;6071489;23;20028;-88
2022/05/24 05:13:26;;;;;;;0.43;0.35;;;;;;;;;;6065350;23;20013;-89
2022/05/24 05:16:04;;;;;;;1.38;0.75;;;;;;;;;;6090226;23;20018;-90
2022/05/24 05:18:30;;;;;;;0.38;0.38;;;;;;;;;;6071393;23;20608;-89
2022/05/24 05:20:59;;;;;;;0.93;0.60;;;;;;;;;;6094260;23;20021;-90
2022/05/24 05:23:32;;;;;;;0.63;0.63;;;;;;;;;;6068587;23;20022;-89
2022/05/24 05:25:58;;;;;;;0.68;0.40;;;;;;;;;;6074435;23;20530;-86
2022/05/24 05:28:45;;;;;;;0.73;0.55;;;;;;;;;;6074991;23;20411;-88
2022/05/24 05:31:25;;;;;;;0.22;0.20;;;;;;;;;;6144382;23;20056;-88
2022/05/24 05:33:57;;;;;;;0.50;0.27;;;;;;;;;;6093941;23;20120;-87
2022/05/24 05:36:32;;;;;;;1.58;0.98;;;;;;;;;;6095528;23;20662;-86
2022/05/24 05:39:02;;;;;;;0.90;0.47;;;;;;;;;;6098221;23;20527;-89
2022/05/24 05:41:30;;;;;;;0.47;0.30;;;;;;;;;;6097513;23;20013;-89
2022/05/24 05:44:04;;;;;;;1.25;1.15;;;;;;;;;;6096282;23;20446;-90
2022/05/24 05:46:36;;;;;;;0.50;0.40;;;;;;;;;;6097229;23;20096;-88
2022/05/24 05:49:02;;;;;;;;;;;;;;;;;;6097085;23;20439;-88
2022/05/24 05:51:29;;;;;;;0.57;0.47;;;;;;;;;;6125306;23;20246;-88
2022/05/24 05:54:04;;;;;;;1.00;0.63;;;;;;;;;;6098841;23;20060;-90
2022/05/24 05:56:44;;;;;;;1.00;0.60;;;;;;;;;;6074341;23;20453;-90
2022/05/24 05:59:20;;;;;;;0.40;0.20;;;;;;;;;;6076014;23;20018;-90
2022/05/24 06:07:23;;;;;;;0.95;0.45;;;;;;;;;;6166123;23;20075;-92
2022/05/24 06:10:10;;;;;;;1.02;0.50;;;;;;;;;;6179223;23;20010;-90
2022/05/24 06:12:37;;;;;;;4.30;0.75;;;;;;;;;;6126404;23;20013;-91
2022/05/24 06:15:27;;;;;;;1.38;0.70;;;;;;;;;;6151368;23;20450;-89
2022/05/24 06:18:00;;;;;;;7.47;0.70;;;;;;;;;;6128384;23;20017;-87
2022/05/24 06:20:28;;;;;;;0.40;0.30;;;;;;;;;;6127846;23;20100;-89
2022/05/24 06:22:58;;;;;;;1.15;0.40;;;;;;;;;;6125761;23;20017;-90
2022/05/24 06:25:25;;;;;;;14.80;0.80;;;;;;;;;;6125174;23;20044;-89
2022/05/24 06:27:55;;;;;;;0.40;0.38;;;;;;;;;;6125965;23;20354;-90
2022/05/24 06:30:26;;;;;;;1.00;0.88;;;;;;;;;;6125220;23;20017;-88
2022/05/24 06:32:59;;;;;;;3.50;0.60;;;;;;;;;;6100111;23;20020;-89
2022/05/24 06:35:27;;;;;;;0.52;0.52;;;;;;;;;;6103983;23;20017;-90
2022/05/24 06:37:54;;;;;;;0.75;0.40;;;;;;;;;;6101743;23;20017;-88
2022/05/24 06:40:24;;;;;;;2.60;0.35;;;;;;;;;;6103244;23;20013;-91
2022/05/24 06:42:54;;;;;;;0.65;0.45;;;;;;;;;;6125890;23;20346;-90
2022/05/24 06:45:23;;;;;;;1.23;0.57;;;;;;;;;;6102697;23;20346;-90
2022/05/24 06:47:58;;;;;;;0.30;0.20;;;;;;;;;;6098560;23;20017;-92
2022/05/24 06:50:27;;;;;;;0.73;0.68;;;;;;;;;;6126916;23;20013;-89
2022/05/24 06:53:07;;;;;;;5.35;0.32;;;;;;;;;;6131581;23;20017;-88
2022/05/24 06:55:37;;;;;;;0.63;0.30;;;;;;;;;;6128129;23;20044;-89
2022/05/24 06:58:03;;;;;;;1.80;1.13;;;;;;;;;;6100049;23;20470;-88
2022/05/24 07:04:09;;;;;;;;;;;;;;;;;;;;;
2022/05/24 07:06:44;;;;;;;1.50;0.90;;;;;;;;;;6154156;23;20017;-90
2022/05/24 07:09:20;;;;;;;0.50;0.45;;;;;;;;;;6105944;23;20096;-90
2022/05/24 07:11:49;;;;;;;0.65;0.47;;;;;;;;;;6127820;23;20013;-90
2022/05/24 07:14:16;;;;;;;0.30;0.25;;;;;;;;;;6129530;23;20036;-91
2022/05/24 07:16:42;;;;;;;0.30;0.25;;;;;;;;;;6103018;23;20100;-90
2022/05/24 07:19:23;;;;;;;0.30;0.30;;;;;;;;;;6101924;23;20017;-90
2022/05/24 07:22:16;;;;;;;3.35;0.88;;;;;;;;;;6125844;23;20096;-91
2022/05/24 07:24:45;;;;;;;1.17;1.08;;;;;;;;;;6125872;23;20090;-89
2022/05/24 07:27:17;;;;;;;0.47;0.45;;;;;;;;;;6129164;23;20027;-90
2022/05/24 07:29:53;;;;;;;2.30;0.75;;;;;;;;;;6130979;23;20013;-91
2022/05/24 07:32:27;;;;;;;0.45;0.35;;;;;;;;;;6124708;23;20013;-87
2022/05/24 07:34:59;;;;;;;0.43;0.43;;;;;;;;;;6126808;23;20017;-88
2022/05/24 07:37:32;;;;;;;0.22;0.20;;;;;;;;;;6129938;23;20105;-91
2022/05/24 07:48:13;;;;;;;1.88;0.47;;;;;;;;;;6128009;23;20044;-91
2022/05/24 07:50:41;;;;;;;2.45;1.35;;;;;;;;;;6128872;23;20266;-89
2022/05/24 07:53:08;;;;;;;0.63;0.43;;;;;;;;;;6128075;23;20020;-88
2022/05/24 07:55:54;;;;;;;0.95;0.47;;;;;;;;;;6128840;23;20521;-91
2022/05/24 07:58:27;;;;;;;1.10;0.47;;;;;;;;;;6106012;23;20029;-90
2022/05/24 08:01:00;;;;;;;0.63;0.52;;;;;;;;;;6130691;23;20016;-92
2022/05/24 08:03:36;;;;;;;0.63;0.28;;;;;;;;;;6106812;23;20024;-90
2022/05/24 08:06:06;;;;;;;0.80;0.38;;;;;;;;;;6125885;23;20013;-92
2022/05/24 08:08:34;;;;;;;0.20;0.20;;;;;;;;;;6129867;23;20099;-93
2022/05/24 08:11:07;;;;;;;0.85;0.40;;;;;;;;;;6105531;23;20239;-93
2022/05/24 08:13:37;;;;;;;0.22;0.15;;;;;;;;;;6131845;23;20490;-91
2022/05/24 08:16:04;;;;;;;0.30;0.20;;;;;;;;;;6105566;23;20151;-88
2022/05/24 08:18:36;;;;;;;1.75;0.65;;;;;;;;;;6130307;23;20016;-88
2022/05/24 08:21:02;;;;;;;0.25;0.25;;;;;;;;;;6129142;23;20075;-89
2022/05/24 08:23:30;;;;;;;0.77;0.63;;;13.80;99.90;;;;;;6129376;23;20442;-91
2022/05/24 08:25:57;;;;;;;0.20;0.10;;;;;;;;;;6126512;23;20087;-90
2022/05/24 08:28:27;;;;;;;0.60;0.40;;;;;;;;;;6129299;23;20023;-91
2022/05/24 08:31:12;;;;;;;0.95;0.45;;;;;;;;;;6133293;23;20013;-87
2022/05/24 08:33:50;;;;;;;1.13;0.90;;;;;;;;;;6116803;23;20023;-87
2022/05/24 08:36:28;;;;;;;0.47;0.40;;;;;;;;;;6133096;23;20253;-89
2022/05/24 08:55:17;;;;;;;0.47;0.47;;;;;;;;;;5100991;27;20423;-86
2022/05/24 08:57:51;;;;;;;0.30;0.20;;;;;;;;;;5029815;28;20135;-86
2022/05/24 09:00:30;;;;;;;0.20;0.10;;;;;;;;;;5039262;28;20359;-85
2022/05/24 09:02:57;;;;;;;0.73;0.57;;;;;;;;;;5041920;28;20047;-88
2022/05/24 09:05:26;;;;;;;0.40;0.22;;;;;;;;;;5019335;28;20320;-85
2022/05/24 09:08:04;;;;;;;0.32;0.17;;;;;;;;;;5030798;28;20060;-86
2022/05/24 09:10:45;;;;;;;0.20;0.13;;;;;;;;;;5038012;28;20036;-87
2022/05/24 09:13:52;;;;;;;0.30;0.17;;;14.30;99.90;;;;;;5061379;28;20044;-85
2022/05/24 09:16:18;;;;;;;0.30;0.15;;;15.10;99.90;;;;;;4978447;28;20042;-85
2022/05/24 09:18:55;;;;;;;0.20;0.10;;;15.10;99.90;;;;;;5005557;28;20049;-87
2022/05/24 09:21:28;;;;;;;0.40;0.28;;;15.10;99.90;;;;;;5055475;28;20085;-87
2022/05/24 09:24:16;;;;;;;0.93;0.10;;;15.00;99.90;;;;;;5034928;28;20039;-85
2022/05/24 09:27:02;;;;;;;0.20;0.20;;;15.10;99.90;;;;;;5047671;28;20047;-83
2022/05/24 09:29:28;;;;;;;0.22;0.20;;;15.20;99.90;;;;;;5048295;28;20242;-86
2022/05/24 09:31:56;;;;;;;0.22;0.22;;;15.20;99.90;;;;;;5023804;28;20036;-87
2022/05/24 09:34:33;;;;;;;0.40;0.40;;;;;;;;;;5029634;28;20037;-84
2022/05/24 09:37:03;;;;;;;0.20;0.20;;;;;;;;;;5039740;28;20047;-87
2022/05/24 09:39:37;;;;;;;0.40;0.22;;;;;;;;;;5055759;28;20040;-85
2022/05/24 09:42:04;;;;;;;0.38;0.20;;;;;;;;;;5038032;28;20047;-85
2022/05/24 09:44:43;;;;;;;0.50;0.47;;;;;;;;;;5038872;28;20488;-86
2022/05/24 09:47:44;;;;;;;0.30;0.20;;;;;;;;;;5040240;28;20747;-87
2022/05/24 09:50:22;;;;;;;0.63;0.30;;;;;;;;;;4962518;28;20089;-84
2022/05/24 09:53:06;;;;;;;0.20;0.10;;;15.30;99.90;;;;;;5036593;28;20067;-86
2022/05/24 09:55:38;;;;;;;0.20;0.15;;;15.00;99.90;;;;;;5038573;28;20032;-84
2022/05/24 09:58:22;;;;;;;0.20;0.15;;;15.00;99.90;;;;;;5030961;28;20055;-85
2022/05/24 10:00:56;;;;;;;0.50;0.30;;;14.90;99.90;;;;;;5020660;28;20040;-87
2022/05/24 10:03:29;;;;;;;0.30;0.20;;;14.90;99.90;;;;;;5038628;28;20725;-84
2022/05/24 10:06:13;;;;;;;0.20;0.10;;;14.90;99.90;;;;;;5026719;28;20120;-85
2022/05/24 10:08:46;;;;;;;0.73;0.25;;;15.00;99.90;;;;;;5028301;28;20122;-87
2022/05/24 10:11:34;;;;;;;0.40;0.20;;;15.10;99.90;;;;;;5029840;28;20039;-86
2022/05/24 10:14:04;;;;;;;0.30;0.30;;;15.20;99.90;;;;;;5023164;28;20051;-86
2022/05/24 10:16:49;;;;;;;3.90;0.43;;;;;;;;;;5029315;28;20036;-85
2022/05/24 10:19:25;;;;;;;0.47;0.38;;;;;;;;;;5023185;28;20090;-86
2022/05/24 10:21:51;;;;;;;0.20;0.20;;;;;;;;;;5017630;28;20170;-85
2022/05/24 10:24:27;;;;;;;0.65;0.20;;;;;;;;;;5044721;28;20119;-83
2022/05/24 10:27:03;;;;;;;2.13;0.50;;;;;;;;;;5016716;28;20045;-85
2022/05/24 10:29:49;;;;;;;0.38;0.35;;;;;;;;;;5018864;28;20037;-85
2022/05/24 10:38:34;;;;;;;0.20;0.10;;;;;;;;;;5043549;28;20045;-87
2022/05/24 10:41:06;;;;;;;0.20;0.10;;;;;;;;;;5032598;28;20040;-85
2022/05/24 10:43:42;;;;;;;0.20;0.10;;;;;;;;;;5019240;28;20047;-85
2022/05/24 10:46:11;;;;;;;0.40;0.20;;;;;;;;;;5017651;28;20032;-87
2022/05/24 10:48:43;;;;;;;0.20;0.10;;;;;;;;;;5027027;28;20033;-85
2022/05/24 10:51:29;;;;;;;0.20;0.10;;;;;;;;;;5018284;28;20041;-87
2022/05/24 10:54:16;;;;;;;0.40;0.35;;;;;;;;;;5024604;28;20120;-83
2022/05/24 10:57:02;;;;;;;0.30;0.10;;;;;;;;;;5046786;28;20048;-86
2022/05/24 10:59:47;;;;;;;0.20;0.10;;;;;;;;;;5060548;28;20494;-84
2022/05/24 11:02:25;;;;;;;0.20;0.10;;;;;;;;;;5044918;28;20110;-85
2022/05/24 11:04:55;;;;;;;0.20;0.10;;;;;;;;;;5054685;28;20315;-84
2022/05/24 11:07:21;;;;;;;0.75;0.40;;;15.40;99.90;;;;;;5045702;28;20032;-86
2022/05/24 11:10:18;;;;;;;0.20;0.10;;;14.70;99.90;;;;;;5025748;28;20040;-84
2022/05/24 11:12:46;;;;;;;0.20;0.00;;;;;;;;;;5040552;28;20050;-85
2022/05/24 11:15:16;;;;;;;0.20;0.10;;;;;;;;;;5065191;28;20115;-85
2022/05/24 11:17:42;;;;;;;0.20;0.10;;;;;;;;;;5039066;28;20068;-84
2022/05/24 11:20:10;;;;;;;0.20;0.10;;;13.80;99.90;;;;;;5027913;28;20106;-88
2022/05/24 11:22:49;;;;;;;0.20;0.10;;;13.60;99.90;;;;;;5039436;28;20032;-84
2022/05/24 11:25:46;;;;;;;0.20;0.10;;;13.50;99.90;;;;;;5049913;28;20032;-85
2022/05/24 11:28:17;;;;;;;0.20;0.10;;;;;;;;;;5047418;28;20040;-84
2022/05/24 11:30:43;;;;;;;0.20;0.10;;;13.30;99.90;;;;;;5046281;28;20044;-83
2022/05/24 11:33:15;;;;;;;0.20;0.10;;;;;;;;;;5059228;28;20044;-85
2022/05/24 11:35:47;;;;;;;0.20;0.10;;;13.10;99.90;;;;;;5055276;28;20052;-86
2022/05/24 11:38:18;;;;;;;0.20;0.10;;;;;;;;;;5052159;28;20475;-85
2022/05/24 11:40:50;;;;;;;0.25;0.20;;;;;;;;;;5038489;28;20386;-83
2022/05/24 11:43:35;;;;;;;0.20;0.20;;;;;;;;;;5036255;28;20144;-85
2022/05/24 11:46:02;;;;;;;0.20;0.10;;;;;;;;;;5061954;28;20071;-88
2022/05/24 11:48:40;;;;;;;0.20;0.10;;;;;;;;;;5050031;28;20094;-86
2022/05/24 11:51:25;;;;;;;0.30;0.25;;;;;;;;;;5050160;28;20063;-85
2022/05/24 11:53:51;;;;;;;0.20;0.10;;;;;;;;;;5063100;28;20037;-83
2022/05/24 11:56:18;;;;;;;0.20;0.10;;;;;;;;;;5050785;28;20044;-84
2022/05/24 11:58:46;;;;;;;0.20;0.10;;;;;;;;;;5046132;28;20037;-85
2022/05/24 12:01:15;;;;;;;0.20;0.10;;;13.00;99.90;;;;;;5044124;28;20039;-85
2022/05/24 12:09:55;;;;;;;0.20;0.20;;;;;;;;;;5053368;28;20041;-83
2022/05/24 12:12:28;;;;;;;0.20;0.10;;;;;;;;;;5037424;28;20076;-86
2022/05/24 12:15:15;;;;;;;0.30;0.17;;;;;;;;;;5040239;28;20603;-85
2022/05/24 12:17:42;;;;;;;0.20;0.10;;;;;;;;;;5046312;28;20048;-87
2022/05/24 12:20:26;;;;;;;0.25;0.13;;;;;;;;;;5047408;28;20582;-86
2022/05/24 12:23:05;;;;;;;0.20;0.10;;;;;;;;;;5043619;28;20045;-84
2022/05/24 12:25:50;;;;;;;0.20;0.10;;;;;;;;;;5043000;28;20562;-84
2022/05/24 12:28:16;;;;;;;0.20;0.20;;;;;;;;;;5045824;28;20044;-85
2022/05/24 12:30:44;;;;;;;0.20;0.10;;;;;;;;;;5018842;28;20041;-87
2022/05/24 12:33:31;;;;;;;0.20;0.10;;;;;;;;;;5032483;28;20507;-85
2022/05/24 12:36:11;;;;;;;0.20;0.10;;;;;;;;;;5001223;28;20052;-87
2022/05/24 12:38:38;;;;;;;0.30;0.30;;;;;;;;;;5039287;28;20917;-84
2022/05/24 12:41:25;;;;;;;0.20;0.10;;;;;;;;;;5032375;28;20032;-86
2022/05/24 12:44:03;;;;;;;0.22;0.10;;;;;;;;;;5043265;28;20090;-87
2022/05/24 12:46:33;;;;;;;0.20;0.10;;;;;;;;;;5066804;28;20044;-85
2022/05/24 12:49:01;;;;;;;0.20;0.10;;;;;;;;;;5057701;28;20111;-86
2022/05/24 12:51:27;;;;;;;0.20;0.10;;;13.50;99.90;;;;;;5045929;28;20374;-84
2022/05/24 12:53:53;;;;;;;0.20;0.17;;;15.80;99.90;;;;;;5028186;28;20032;-84
2022/05/24 12:56:23;;;;;;;0.20;0.10;;;15.90;99.90;;;;;;5025749;28;20114;-84
2022/05/24 12:58:51;;;;;;;0.20;0.10;;;15.90;99.90;;;;;;5030482;28;20041;-85
2022/05/24 13:01:31;;;;;;;0.30;0.10;;;15.80;99.90;;;;;;5040767;28;20122;-85
2022/05/24 13:04:16;;;;;;;0.20;0.10;;;15.50;99.90;;;;;;5041587;28;20044;-88
2022/05/24 13:06:43;;;;;;;0.30;0.20;;;;;;;;;;5035927;28;20068;-86
2022/05/24 13:09:15;;;;;;;0.20;0.10;;;;;;;;;;5036485;28;20044;-85
2022/05/24 13:11:43;;;;;;;0.20;0.00;;;15.30;99.90;;;;;;5062591;28;20048;-85
2022/05/24 13:14:19;;;;;;;0.35;0.10;;;;;;;;;;5031486;28;20119;-86
2022/05/24 13:16:45;;;;;;;0.20;0.00;;;;;;;;;;5034896;28;20048;-87
2022/05/24 13:19:11;;;;;;;0.20;0.10;;;14.50;99.90;;;;;;5027068;28;20037;-85
2022/05/24 13:21:37;;;;;;;0.20;0.00;;;;;;;;;;5021662;28;20049;-87
2022/05/24 13:24:16;;;;;;;0.20;0.10;;;14.30;99.90;;;;;;5029457;28;20394;-83
2022/05/24 13:27:04;;;;;;;0.20;0.10;;;14.20;99.90;;;;;;5026779;28;20060;-87
2022/05/24 13:33:33;;;;;;;0.20;0.00;;;14.10;99.90;;;;;;5033048;28;20040;-86
2022/05/24 13:35:02;;;;;;;0.20;0.10;;;14.00;99.90;;;;;;5034917;28;20044;-85
2022/05/24 13:37:49;;;;;;;0.20;0.10;;;14.00;99.90;;;;;;5019376;28;20041;-85
2022/05/24 13:40:15;;;;;;;0.20;0.10;;;14.00;99.90;;;;;;5037769;28;20497;-88
2022/05/24 13:42:54;;;;;;;0.20;0.10;;;14.10;99.90;;;;;;5022820;28;20044;-83
2022/05/24 13:45:23;;;;;;;0.20;0.10;;;14.20;99.90;;;;;;5025394;28;21042;-87
2022/05/24 13:47:54;;;;;;;0.20;0.10;;;14.30;99.90;;;;;;5038914;28;21688;-83
2022/05/24 13:50:41;;;;;;;0.20;0.10;;;14.50;99.90;;;;;;5045277;28;20036;-85
2022/05/24 13:53:33;;;;;;;0.20;0.05;;;14.70;99.90;;;;;;5044028;28;20040;-86
2022/05/24 13:56:03;;;;;;;0.20;0.10;;;14.90;99.90;;;;;;5047933;28;20586;-86
2022/05/24 13:58:34;;;;;;;0.20;0.10;;;;;;;;;;5055800;28;20048;-85
2022/05/24 14:01:02;;;;;;;0.20;0.10;;;;;;;;;;5037796;28;20258;-85
2022/05/24 14:03:31;;;;;;;0.20;0.10;;;;;;;;;;5044728;28;20253;-86
2022/05/24 14:06:04;;;;;;;0.20;0.10;;;;;;;;;;5025142;28;20045;-83
2022/05/24 14:08:31;;;;;;;0.20;0.03;;;;;;;;;;5049522;28;20037;-86
2022/05/24 14:10:58;;;;;;;0.22;0.20;;;;;;;;;;5028071;28;20043;-85
2022/05/24 14:13:26;;;;;;;0.20;0.10;;;;;;;;;;5031540;28;20101;-87
2022/05/24 14:15:52;;;;;;;0.60;0.10;;;;;;;;;;5010543;28;20493;-85
2022/05/24 14:18:21;;;;;;;0.20;0.10;;;;;;;;;;5017725;28;20032;-86
2022/05/24 14:20:47;;;;;;;0.20;0.10;;;;;;;;;;5010008;28;20096;-83
2022/05/24 14:23:16;;;;;;;0.20;0.10;;;;;;;;;;5035074;28;20048;-83
2022/05/24 14:25:43;;;;;;;0.20;0.10;;;;;;;;;;5026314;28;20542;-84
2022/05/24 14:28:09;;;;;;;0.20;0.15;;;;;;;;;;5026722;28;20041;-87
2022/05/24 14:30:39;;;;;;;0.20;0.10;;;;;;;;;;5029547;28;20029;-84
2022/05/24 14:33:05;;;;;;;0.25;0.10;;;;;;;;;;5027767;28;20047;-84
2022/05/24 14:35:32;;;;;;;0.20;0.13;;;;;;;;;;5035147;28;20037;-84
2022/05/24 14:37:58;;;;;;;0.20;0.10;;;;;;;;;;5021575;28;20037;-87
2022/05/24 14:40:24;;;;;;;0.20;0.10;;;;;;;;;;5016561;28;20036;-84
2022/05/24 14:42:51;;;;;;;0.20;0.10;;;;;;;;;;5054025;28;20067;-85
2022/05/24 14:45:18;;;;;;;0.20;0.10;;;;;;;;;;5034485;28;20577;-84
2022/05/24 14:47:44;;;;;;;0.20;0.10;;;;;;;;;;5022800;28;20562;-87
2022/05/24 14:50:11;;;;;;;0.20;0.10;;;;;;;;;;5053144;28;20741;-86
2022/05/24 14:52:37;;;;;;;0.30;0.10;;;;;;;;;;5039056;28;20039;-87
2022/05/24 14:55:04;;;;;;;0.20;0.10;;;;;;;;;;5026403;28;20071;-86
2022/05/24 14:57:30;;;;;;;0.20;0.10;;;;;;;;;;5025245;28;20103;-84
2022/05/24 14:59:56;;;;;;;0.20;0.10;;;;;;;;;;5036083;28;20390;-85
2022/05/24 15:02:22;;;;;;;0.20;0.10;;;;;;;;;;5026411;28;20127;-82
2022/05/24 15:04:48;;;;;;;0.20;0.10;;;;;;;;;;5033801;28;20048;-88
2022/05/24 15:15:33;;;;;;;0.20;0.10;;;;;;;;;;5054820;28;20475;-87
2022/05/24 15:17:59;;;;;;;0.45;0.25;;;;;;;;;;5043697;28;20525;-86
2022/05/24 15:20:27;;;;;;;0.20;0.10;;;;;;;;;;5054496;28;20033;-84
2022/05/24 15:22:57;;;;;;;0.20;0.10;;;;;;;;;;5040448;28;20033;-86
2022/05/24 15:25:26;;;;;;;0.25;0.20;;;;;;;;;;5037814;28;20033;-84
2022/05/24 15:27:52;;;;;;;0.20;0.08;;;;;;;;;;5040885;28;20635;-85
2022/05/24 15:30:19;;;;;;;0.20;0.10;;;;;;;;;;5028415;28;20037;-84
2022/05/24 15:32:46;;;;;;;0.80;0.35;;;;;;;;;;5027994;28;20071;-86
2022/05/24 15:35:12;;;;;;;0.20;0.10;;;15.00;99.90;;;;;;5024777;28;20032;-86
2022/05/24 15:37:38;;;;;;;0.20;0.03;;;;;;;;;;5022578;28;20037;-85
2022/05/24 15:40:05;;;;;;;0.20;0.10;;;;;;;;;;5052104;28;21248;-83
2022/05/24 15:42:33;;;;;;;0.35;0.20;;;;;;;;;;5034117;28;20098;-84
2022/05/24 15:44:59;;;;;;;0.30;0.20;;;;;;;;;;5033724;28;20048;-84
2022/05/24 15:47:25;;;;;;;0.80;0.20;;;;;;;;;;5030643;28;20482;-85
2022/05/24 15:49:52;;;;;;;0.20;0.10;;;;;;;;;;5019706;28;20168;-84
2022/05/24 15:52:18;;;;;;;0.30;0.10;;;;;;;;;;5048346;28;20041;-85
2022/05/24 15:54:44;;;;;;;0.20;0.10;;;;;;;;;;5025522;28;20045;-85
2022/05/24 15:57:10;;;;;;;0.25;0.10;;;;;;;;;;5019959;28;20433;-82
2022/05/24 15:59:39;;;;;;;0.28;0.17;;;;;;;;;;5027530;28;20136;-87
2022/05/24 16:02:05;;;;;;;0.20;0.20;;;;;;;;;;5024892;28;20045;-85
2022/05/24 16:10:04;;;;;;;0.20;0.10;;;;;;;;;;5042170;28;20040;-87
2022/05/24 16:12:41;;;;;;;0.20;0.20;;;;;;;;;;5024493;28;20052;-84
2022/05/24 16:15:08;;;;;;;0.20;0.10;;;;;;;;;;5024131;28;20042;-82
2022/05/24 16:17:34;;;;;;;0.20;0.10;;;;;;;;;;5025880;28;20056;-86
2022/05/24 16:20:02;;;;;;;0.20;0.00;;;;;;;;;;5038922;28;20064;-83
2022/05/24 16:22:29;;;;;;;0.20;0.10;;;;;;;;;;5018914;28;20106;-80
2022/05/24 16:24:56;;;;;;;0.20;0.10;;;;;;;;;;5014416;28;20075;-83
2022/05/24 16:27:22;;;;;;;0.30;0.20;;;;;;;;;;5012331;28;20059;-83
2022/05/24 16:29:48;;;;;;;0.20;0.10;;;;;;;;;;5027893;28;20044;-83
2022/05/24 16:32:14;;;;;;;0.20;0.10;;;;;;;;;;5021034;28;20066;-84
2022/05/24 16:34:40;;;;;;;0.20;0.10;;;;;;;;;;5005376;28;20040;-88
2022/05/24 16:37:06;;;;;;;0.20;0.10;;;;;;;;;;5025451;28;20045;-88
2022/05/24 16:39:33;;;;;;;0.20;0.10;;;;;;;;;;5023199;28;20468;-86
2022/05/24 16:41:59;;;;;;;0.20;0.10;;;;;;;;;;5026988;28;20053;-87
2022/05/24 16:44:28;;;;;;;0.20;0.10;;;;;;;;;;5027687;28;20722;-87
2022/05/24 16:46:54;;;;;;;0.20;0.10;;;;;;;;;;5013640;28;20036;-86
2022/05/24 16:49:20;;;;;;;0.20;0.00;;;;;;;;;;5046197;28;20405;-88
2022/05/24 16:51:49;;;;;;;0.20;0.10;;;;;;;;;;5022131;28;20447;-89
2022/05/24 16:59:45;;;;;;;0.20;0.10;;;;;;;;;;5033285;28;20068;-87
2022/05/24 17:02:11;;;;;;;0.20;0.10;;;;;;;;;;5025652;28;20048;-87
2022/05/24 17:04:37;;;;;;;0.20;0.10;;;;;;;;;;5010862;28;20041;-87
2022/05/24 17:07:04;;;;;;;0.20;0.17;;;;;;;;;;5011681;28;20029;-85
2022/05/24 17:09:29;;;;;;;0.20;0.10;;;16.40;99.90;;;;;;5016580;28;20520;-88
2022/05/24 17:11:55;;;;;;;0.20;0.10;;;15.90;99.90;;;;;;5003534;28;20045;-86